sensor_id;sensor_type;location;lat;lon;timestamp;P1;durP1;ratioP1;P2;durP2;ratioP2
69226;SDS011;56334;52.398;7.552;2023-05-16T00:00:10;8.95;;;2.13;;
69226;SDS011;56334;52.398;7.552;2023-05-16T00:02:37;10.18;;;2.10;;
69226;SDS011;56334;52.398;7.552;2023-05-16T00:05:03;8.82;;;2.22;;
69226;SDS011;56334;52.398;7.552;2023-05-16T00:07:31;8.13;;;2.60;;
69226;SDS011;56334;52.398;7.552;2023-05-16T00:09:57;10.02;;;2.20;;
69226;SDS011;56334;52.398;7.552;2023-05-16T00:12:23;8.75;;;2.38;;
69226;SDS011;56334;52.398;7.552;2023-05-16T00:14:50;10.23;;;2.30;;
69226;SDS011;56334;52.398;7.552;2023-05-16T00:17:16;10.98;;;2.55;;
69226;SDS011;56334;52.398;7.552;2023-05-16T00:19:44;10.32;;;2.35;;
69226;SDS011;56334;52.398;7.552;2023-05-16T00:22:13;14.00;;;2.60;;
69226;SDS011;56334;52.398;7.552;2023-05-16T00:24:39;9.45;;;2.30;;
69226;SDS011;56334;52.398;7.552;2023-05-16T00:27:06;9.35;;;2.42;;
69226;SDS011;56334;52.398;7.552;2023-05-16T00:29:33;12.63;;;2.40;;
69226;SDS011;56334;52.398;7.552;2023-05-16T00:31:59;12.73;;;2.70;;
69226;SDS011;56334;52.398;7.552;2023-05-16T00:34:25;10.80;;;2.40;;
69226;SDS011;56334;52.398;7.552;2023-05-16T00:36:52;10.40;;;2.35;;
69226;SDS011;56334;52.398;7.552;2023-05-16T00:39:18;10.60;;;2.53;;
69226;SDS011;56334;52.398;7.552;2023-05-16T00:41:44;9.73;;;2.58;;
69226;SDS011;56334;52.398;7.552;2023-05-16T00:44:10;9.70;;;2.53;;
69226;SDS011;56334;52.398;7.552;2023-05-16T00:46:37;11.15;;;2.38;;
69226;SDS011;56334;52.398;7.552;2023-05-16T00:49:03;10.07;;;2.92;;
69226;SDS011;56334;52.398;7.552;2023-05-16T00:51:29;11.25;;;2.58;;
69226;SDS011;56334;52.398;7.552;2023-05-16T00:53:55;12.15;;;2.95;;
69226;SDS011;56334;52.398;7.552;2023-05-16T00:56:23;11.20;;;2.40;;
69226;SDS011;56334;52.398;7.552;2023-05-16T00:58:49;15.02;;;3.28;;
69226;SDS011;56334;52.398;7.552;2023-05-16T01:01:15;11.93;;;3.00;;
69226;SDS011;56334;52.398;7.552;2023-05-16T01:03:42;9.55;;;2.67;;
69226;SDS011;56334;52.398;7.552;2023-05-16T01:06:10;14.73;;;2.95;;
69226;SDS011;56334;52.398;7.552;2023-05-16T01:08:37;7.95;;;2.05;;
69226;SDS011;56334;52.398;7.552;2023-05-16T01:24:13;10.63;;;2.30;;
69226;SDS011;56334;52.398;7.552;2023-05-16T01:26:40;9.35;;;2.35;;
69226;SDS011;56334;52.398;7.552;2023-05-16T01:29:06;9.57;;;2.38;;
69226;SDS011;56334;52.398;7.552;2023-05-16T01:31:32;13.48;;;2.50;;
69226;SDS011;56334;52.398;7.552;2023-05-16T01:33:58;13.10;;;2.70;;
69226;SDS011;56334;52.398;7.552;2023-05-16T01:41:24;11.60;;;2.22;;
69226;SDS011;56334;52.398;7.552;2023-05-16T01:43:52;15.80;;;2.95;;
69226;SDS011;56334;52.398;7.552;2023-05-16T01:46:25;14.77;;;3.35;;
69226;SDS011;56334;52.398;7.552;2023-05-16T01:51:41;15.10;;;2.80;;
69226;SDS011;56334;52.398;7.552;2023-05-16T01:54:08;14.63;;;2.70;;
69226;SDS011;56334;52.398;7.552;2023-05-16T01:56:36;9.75;;;2.20;;
69226;SDS011;56334;52.398;7.552;2023-05-16T01:59:02;13.65;;;2.95;;
69226;SDS011;56334;52.398;7.552;2023-05-16T02:01:29;15.65;;;2.60;;
69226;SDS011;56334;52.398;7.552;2023-05-16T02:03:55;13.45;;;2.95;;
69226;SDS011;56334;52.398;7.552;2023-05-16T02:06:21;15.57;;;2.78;;
69226;SDS011;56334;52.398;7.552;2023-05-16T02:08:49;12.43;;;2.83;;
69226;SDS011;56334;52.398;7.552;2023-05-16T02:11:16;13.30;;;2.65;;
69226;SDS011;56334;52.398;7.552;2023-05-16T02:13:42;14.68;;;2.85;;
69226;SDS011;56334;52.398;7.552;2023-05-16T02:16:09;13.20;;;2.90;;
69226;SDS011;56334;52.398;7.552;2023-05-16T02:18:35;13.02;;;2.60;;
69226;SDS011;56334;52.398;7.552;2023-05-16T02:21:01;12.98;;;3.03;;
69226;SDS011;56334;52.398;7.552;2023-05-16T02:23:27;14.57;;;2.90;;
69226;SDS011;56334;52.398;7.552;2023-05-16T02:25:53;14.93;;;2.42;;
69226;SDS011;56334;52.398;7.552;2023-05-16T02:28:20;14.27;;;2.70;;
69226;SDS011;56334;52.398;7.552;2023-05-16T02:30:54;13.90;;;2.50;;
69226;SDS011;56334;52.398;7.552;2023-05-16T02:33:21;14.75;;;2.35;;
69226;SDS011;56334;52.398;7.552;2023-05-16T02:35:47;12.98;;;2.45;;
69226;SDS011;56334;52.398;7.552;2023-05-16T02:38:13;11.15;;;1.98;;
69226;SDS011;56334;52.398;7.552;2023-05-16T02:40:41;14.40;;;2.53;;
69226;SDS011;56334;52.398;7.552;2023-05-16T02:43:07;13.70;;;2.28;;
69226;SDS011;56334;52.398;7.552;2023-05-16T02:45:34;15.63;;;2.72;;
69226;SDS011;56334;52.398;7.552;2023-05-16T02:48:00;13.60;;;2.80;;
69226;SDS011;56334;52.398;7.552;2023-05-16T02:50:26;17.33;;;3.28;;
69226;SDS011;56334;52.398;7.552;2023-05-16T02:52:52;16.27;;;3.45;;
69226;SDS011;56334;52.398;7.552;2023-05-16T02:55:18;16.50;;;2.90;;
69226;SDS011;56334;52.398;7.552;2023-05-16T02:57:44;14.25;;;2.70;;
69226;SDS011;56334;52.398;7.552;2023-05-16T03:00:11;13.07;;;2.40;;
69226;SDS011;56334;52.398;7.552;2023-05-16T03:05:04;17.42;;;2.92;;
69226;SDS011;56334;52.398;7.552;2023-05-16T03:07:30;13.55;;;2.70;;
69226;SDS011;56334;52.398;7.552;2023-05-16T03:09:56;14.30;;;2.72;;
69226;SDS011;56334;52.398;7.552;2023-05-16T03:12:22;16.08;;;2.83;;
69226;SDS011;56334;52.398;7.552;2023-05-16T03:14:48;13.20;;;2.88;;
69226;SDS011;56334;52.398;7.552;2023-05-16T03:17:15;10.18;;;2.78;;
69226;SDS011;56334;52.398;7.552;2023-05-16T03:19:41;13.73;;;2.83;;
69226;SDS011;56334;52.398;7.552;2023-05-16T03:22:07;14.95;;;2.85;;
69226;SDS011;56334;52.398;7.552;2023-05-16T03:24:33;15.20;;;2.70;;
69226;SDS011;56334;52.398;7.552;2023-05-16T03:26:59;14.40;;;2.22;;
69226;SDS011;56334;52.398;7.552;2023-05-16T03:29:27;15.70;;;2.65;;
69226;SDS011;56334;52.398;7.552;2023-05-16T03:31:54;16.13;;;2.30;;
69226;SDS011;56334;52.398;7.552;2023-05-16T03:34:20;11.50;;;2.38;;
69226;SDS011;56334;52.398;7.552;2023-05-16T03:36:47;11.95;;;2.17;;
69226;SDS011;56334;52.398;7.552;2023-05-16T03:39:13;15.32;;;2.60;;
69226;SDS011;56334;52.398;7.552;2023-05-16T03:41:39;13.25;;;2.38;;
69226;SDS011;56334;52.398;7.552;2023-05-16T03:44:05;11.27;;;2.42;;
69226;SDS011;56334;52.398;7.552;2023-05-16T03:46:31;16.38;;;2.35;;
69226;SDS011;56334;52.398;7.552;2023-05-16T03:48:58;14.95;;;2.40;;
69226;SDS011;56334;52.398;7.552;2023-05-16T03:51:24;12.27;;;2.08;;
69226;SDS011;56334;52.398;7.552;2023-05-16T03:53:50;15.15;;;2.40;;
69226;SDS011;56334;52.398;7.552;2023-05-16T03:56:16;12.85;;;2.35;;
69226;SDS011;56334;52.398;7.552;2023-05-16T03:58:42;15.63;;;2.75;;
69226;SDS011;56334;52.398;7.552;2023-05-16T04:01:08;14.20;;;2.05;;
69226;SDS011;56334;52.398;7.552;2023-05-16T04:03:34;10.73;;;2.10;;
69226;SDS011;56334;52.398;7.552;2023-05-16T04:06:02;14.75;;;3.00;;
69226;SDS011;56334;52.398;7.552;2023-05-16T04:08:28;14.65;;;2.50;;
69226;SDS011;56334;52.398;7.552;2023-05-16T04:10:55;12.63;;;2.13;;
69226;SDS011;56334;52.398;7.552;2023-05-16T04:13:21;12.93;;;2.53;;
69226;SDS011;56334;52.398;7.552;2023-05-16T04:15:47;11.13;;;1.85;;
69226;SDS011;56334;52.398;7.552;2023-05-16T04:18:13;10.75;;;2.22;;
69226;SDS011;56334;52.398;7.552;2023-05-16T04:20:42;17.70;;;2.33;;
69226;SDS011;56334;52.398;7.552;2023-05-16T04:23:11;15.70;;;2.38;;
69226;SDS011;56334;52.398;7.552;2023-05-16T04:25:37;12.57;;;2.42;;
69226;SDS011;56334;52.398;7.552;2023-05-16T04:28:04;16.88;;;2.10;;
69226;SDS011;56334;52.398;7.552;2023-05-16T04:30:30;12.65;;;2.35;;
69226;SDS011;56334;52.398;7.552;2023-05-16T04:32:57;15.88;;;2.13;;
69226;SDS011;56334;52.398;7.552;2023-05-16T04:35:23;15.48;;;2.80;;
69226;SDS011;56334;52.398;7.552;2023-05-16T04:37:49;10.90;;;2.00;;
69226;SDS011;56334;52.398;7.552;2023-05-16T04:40:15;14.05;;;2.30;;
69226;SDS011;56334;52.398;7.552;2023-05-16T04:42:41;17.95;;;2.65;;
69226;SDS011;56334;52.398;7.552;2023-05-16T04:45:07;12.23;;;2.30;;
69226;SDS011;56334;52.398;7.552;2023-05-16T04:47:38;12.35;;;2.53;;
69226;SDS011;56334;52.398;7.552;2023-05-16T04:50:05;11.70;;;2.13;;
69226;SDS011;56334;52.398;7.552;2023-05-16T04:52:33;12.50;;;2.28;;
69226;SDS011;56334;52.398;7.552;2023-05-16T04:54:59;14.23;;;2.40;;
69226;SDS011;56334;52.398;7.552;2023-05-16T04:57:25;12.48;;;2.50;;
69226;SDS011;56334;52.398;7.552;2023-05-16T04:59:51;13.23;;;2.85;;
69226;SDS011;56334;52.398;7.552;2023-05-16T05:02:18;16.70;;;2.35;;
69226;SDS011;56334;52.398;7.552;2023-05-16T05:04:44;10.95;;;2.22;;
69226;SDS011;56334;52.398;7.552;2023-05-16T05:07:10;16.10;;;2.30;;
69226;SDS011;56334;52.398;7.552;2023-05-16T05:09:36;10.88;;;2.30;;
69226;SDS011;56334;52.398;7.552;2023-05-16T05:12:02;12.80;;;2.55;;
69226;SDS011;56334;52.398;7.552;2023-05-16T05:14:28;11.35;;;2.20;;
69226;SDS011;56334;52.398;7.552;2023-05-16T05:16:55;11.73;;;2.20;;
69226;SDS011;56334;52.398;7.552;2023-05-16T05:19:21;13.27;;;2.55;;
69226;SDS011;56334;52.398;7.552;2023-05-16T05:21:47;11.70;;;2.10;;
69226;SDS011;56334;52.398;7.552;2023-05-16T05:24:13;10.05;;;2.15;;
69226;SDS011;56334;52.398;7.552;2023-05-16T05:26:39;12.73;;;2.17;;
69226;SDS011;56334;52.398;7.552;2023-05-16T05:29:05;11.90;;;2.13;;
69226;SDS011;56334;52.398;7.552;2023-05-16T05:31:31;16.17;;;2.70;;
69226;SDS011;56334;52.398;7.552;2023-05-16T05:33:58;11.10;;;2.10;;
69226;SDS011;56334;52.398;7.552;2023-05-16T05:36:24;10.20;;;2.38;;
69226;SDS011;56334;52.398;7.552;2023-05-16T05:38:51;11.07;;;2.10;;
69226;SDS011;56334;52.398;7.552;2023-05-16T05:41:17;11.40;;;1.90;;
69226;SDS011;56334;52.398;7.552;2023-05-16T05:43:43;13.63;;;2.25;;
69226;SDS011;56334;52.398;7.552;2023-05-16T05:46:09;14.43;;;2.35;;
69226;SDS011;56334;52.398;7.552;2023-05-16T05:48:35;13.02;;;2.65;;
69226;SDS011;56334;52.398;7.552;2023-05-16T05:51:01;11.68;;;2.50;;
69226;SDS011;56334;52.398;7.552;2023-05-16T05:53:27;13.52;;;2.88;;
69226;SDS011;56334;52.398;7.552;2023-05-16T05:55:53;9.60;;;2.42;;
69226;SDS011;56334;52.398;7.552;2023-05-16T05:58:20;12.93;;;2.25;;
69226;SDS011;56334;52.398;7.552;2023-05-16T06:00:46;12.57;;;2.28;;
69226;SDS011;56334;52.398;7.552;2023-05-16T06:03:12;20.63;;;2.50;;
69226;SDS011;56334;52.398;7.552;2023-05-16T06:05:38;10.80;;;2.20;;
69226;SDS011;56334;52.398;7.552;2023-05-16T06:08:05;12.93;;;3.08;;
69226;SDS011;56334;52.398;7.552;2023-05-16T06:10:31;12.75;;;2.00;;
69226;SDS011;56334;52.398;7.552;2023-05-16T06:12:57;10.88;;;2.42;;
69226;SDS011;56334;52.398;7.552;2023-05-16T06:15:23;14.10;;;2.38;;
69226;SDS011;56334;52.398;7.552;2023-05-16T06:17:50;11.32;;;2.25;;
69226;SDS011;56334;52.398;7.552;2023-05-16T06:20:16;10.77;;;2.03;;
69226;SDS011;56334;52.398;7.552;2023-05-16T06:22:42;11.45;;;2.03;;
69226;SDS011;56334;52.398;7.552;2023-05-16T06:25:08;13.55;;;2.13;;
69226;SDS011;56334;52.398;7.552;2023-05-16T06:27:34;10.45;;;1.70;;
69226;SDS011;56334;52.398;7.552;2023-05-16T06:30:01;10.90;;;1.90;;
69226;SDS011;56334;52.398;7.552;2023-05-16T06:32:26;9.45;;;2.00;;
69226;SDS011;56334;52.398;7.552;2023-05-16T06:34:53;9.10;;;1.67;;
69226;SDS011;56334;52.398;7.552;2023-05-16T06:37:19;12.55;;;2.33;;
69226;SDS011;56334;52.398;7.552;2023-05-16T06:39:47;10.40;;;1.75;;
69226;SDS011;56334;52.398;7.552;2023-05-16T06:42:13;10.98;;;2.00;;
69226;SDS011;56334;52.398;7.552;2023-05-16T06:44:39;11.13;;;2.00;;
69226;SDS011;56334;52.398;7.552;2023-05-16T06:47:05;12.30;;;2.05;;
69226;SDS011;56334;52.398;7.552;2023-05-16T06:49:32;17.55;;;2.15;;
69226;SDS011;56334;52.398;7.552;2023-05-16T06:51:58;12.48;;;1.90;;
69226;SDS011;56334;52.398;7.552;2023-05-16T06:54:24;12.27;;;1.77;;
69226;SDS011;56334;52.398;7.552;2023-05-16T06:56:50;9.35;;;1.67;;
69226;SDS011;56334;52.398;7.552;2023-05-16T06:59:16;7.60;;;1.52;;
69226;SDS011;56334;52.398;7.552;2023-05-16T07:01:42;9.98;;;2.10;;
69226;SDS011;56334;52.398;7.552;2023-05-16T07:04:08;7.82;;;1.73;;
69226;SDS011;56334;52.398;7.552;2023-05-16T07:06:34;10.27;;;2.08;;
69226;SDS011;56334;52.398;7.552;2023-05-16T07:09:00;10.35;;;1.77;;
69226;SDS011;56334;52.398;7.552;2023-05-16T07:11:26;9.18;;;1.77;;
69226;SDS011;56334;52.398;7.552;2023-05-16T07:13:52;13.00;;;1.70;;
69226;SDS011;56334;52.398;7.552;2023-05-16T07:16:18;8.60;;;1.60;;
69226;SDS011;56334;52.398;7.552;2023-05-16T07:18:45;12.68;;;1.98;;
69226;SDS011;56334;52.398;7.552;2023-05-16T07:21:11;10.93;;;1.52;;
69226;SDS011;56334;52.398;7.552;2023-05-16T07:23:37;11.75;;;1.92;;
69226;SDS011;56334;52.398;7.552;2023-05-16T07:26:03;14.40;;;2.13;;
69226;SDS011;56334;52.398;7.552;2023-05-16T07:28:29;12.77;;;2.00;;
69226;SDS011;56334;52.398;7.552;2023-05-16T07:30:55;12.77;;;1.90;;
69226;SDS011;56334;52.398;7.552;2023-05-16T07:33:22;9.75;;;1.83;;
69226;SDS011;56334;52.398;7.552;2023-05-16T07:35:49;7.55;;;1.50;;
69226;SDS011;56334;52.398;7.552;2023-05-16T07:38:15;6.88;;;1.50;;
69226;SDS011;56334;52.398;7.552;2023-05-16T07:40:41;10.88;;;1.98;;
69226;SDS011;56334;52.398;7.552;2023-05-16T07:43:07;11.48;;;2.03;;
69226;SDS011;56334;52.398;7.552;2023-05-16T07:45:33;9.00;;;1.88;;
69226;SDS011;56334;52.398;7.552;2023-05-16T07:47:59;11.65;;;1.60;;
69226;SDS011;56334;52.398;7.552;2023-05-16T07:50:25;9.48;;;1.95;;
69226;SDS011;56334;52.398;7.552;2023-05-16T07:52:51;9.68;;;1.70;;
69226;SDS011;56334;52.398;7.552;2023-05-16T07:55:17;5.25;;;1.20;;
69226;SDS011;56334;52.398;7.552;2023-05-16T07:57:43;9.13;;;1.60;;
69226;SDS011;56334;52.398;7.552;2023-05-16T08:00:10;10.00;;;1.42;;
69226;SDS011;56334;52.398;7.552;2023-05-16T08:02:36;10.13;;;1.95;;
69226;SDS011;56334;52.398;7.552;2023-05-16T08:05:02;9.55;;;1.85;;
69226;SDS011;56334;52.398;7.552;2023-05-16T08:07:29;11.57;;;1.90;;
69226;SDS011;56334;52.398;7.552;2023-05-16T08:09:56;7.18;;;1.33;;
69226;SDS011;56334;52.398;7.552;2023-05-16T08:12:22;9.85;;;1.75;;
69226;SDS011;56334;52.398;7.552;2023-05-16T08:14:48;8.13;;;1.38;;
69226;SDS011;56334;52.398;7.552;2023-05-16T08:17:14;11.18;;;1.50;;
69226;SDS011;56334;52.398;7.552;2023-05-16T08:19:40;11.60;;;1.85;;
69226;SDS011;56334;52.398;7.552;2023-05-16T08:22:07;8.82;;;1.30;;
69226;SDS011;56334;52.398;7.552;2023-05-16T08:24:34;7.40;;;1.48;;
69226;SDS011;56334;52.398;7.552;2023-05-16T08:27:00;9.55;;;1.50;;
69226;SDS011;56334;52.398;7.552;2023-05-16T08:29:26;16.98;;;1.85;;
69226;SDS011;56334;52.398;7.552;2023-05-16T08:31:53;6.40;;;1.33;;
69226;SDS011;56334;52.398;7.552;2023-05-16T08:34:19;8.57;;;1.25;;
69226;SDS011;56334;52.398;7.552;2023-05-16T08:36:45;8.38;;;1.33;;
69226;SDS011;56334;52.398;7.552;2023-05-16T08:39:12;15.95;;;2.10;;
69226;SDS011;56334;52.398;7.552;2023-05-16T08:41:38;8.10;;;1.40;;
69226;SDS011;56334;52.398;7.552;2023-05-16T08:44:04;7.70;;;1.30;;
69226;SDS011;56334;52.398;7.552;2023-05-16T08:46:31;6.90;;;1.42;;
69226;SDS011;56334;52.398;7.552;2023-05-16T08:51:24;7.57;;;1.45;;
69226;SDS011;56334;52.398;7.552;2023-05-16T08:53:53;9.13;;;1.60;;
69226;SDS011;56334;52.398;7.552;2023-05-16T08:56:19;8.55;;;1.40;;
69226;SDS011;56334;52.398;7.552;2023-05-16T08:58:46;8.57;;;1.67;;
69226;SDS011;56334;52.398;7.552;2023-05-16T09:01:12;7.38;;;1.20;;
69226;SDS011;56334;52.398;7.552;2023-05-16T09:03:38;9.70;;;1.50;;
69226;SDS011;56334;52.398;7.552;2023-05-16T09:06:05;8.07;;;1.75;;
69226;SDS011;56334;52.398;7.552;2023-05-16T09:08:31;8.48;;;1.67;;
69226;SDS011;56334;52.398;7.552;2023-05-16T09:10:57;5.10;;;1.25;;
69226;SDS011;56334;52.398;7.552;2023-05-16T09:13:23;7.47;;;1.27;;
69226;SDS011;56334;52.398;7.552;2023-05-16T09:16:11;7.15;;;1.27;;
69226;SDS011;56334;52.398;7.552;2023-05-16T09:18:36;5.88;;;1.20;;
69226;SDS011;56334;52.398;7.552;2023-05-16T09:21:03;7.82;;;1.20;;
69226;SDS011;56334;52.398;7.552;2023-05-16T09:23:30;7.60;;;1.30;;
69226;SDS011;56334;52.398;7.552;2023-05-16T09:25:59;6.18;;;1.20;;
69226;SDS011;56334;52.398;7.552;2023-05-16T09:28:25;5.05;;;1.08;;
69226;SDS011;56334;52.398;7.552;2023-05-16T09:30:51;5.32;;;1.13;;
69226;SDS011;56334;52.398;7.552;2023-05-16T09:33:23;8.40;;;1.50;;
69226;SDS011;56334;52.398;7.552;2023-05-16T09:35:59;6.75;;;1.30;;
69226;SDS011;56334;52.398;7.552;2023-05-16T09:38:26;7.25;;;1.30;;
69226;SDS011;56334;52.398;7.552;2023-05-16T09:40:55;7.03;;;1.30;;
69226;SDS011;56334;52.398;7.552;2023-05-16T09:43:25;6.40;;;1.27;;
69226;SDS011;56334;52.398;7.552;2023-05-16T09:45:51;8.70;;;1.40;;
69226;SDS011;56334;52.398;7.552;2023-05-16T09:48:18;8.30;;;1.35;;
69226;SDS011;56334;52.398;7.552;2023-05-16T09:50:46;6.00;;;1.10;;
69226;SDS011;56334;52.398;7.552;2023-05-16T09:53:15;8.20;;;1.63;;
69226;SDS011;56334;52.398;7.552;2023-05-16T09:55:41;5.72;;;1.10;;
69226;SDS011;56334;52.398;7.552;2023-05-16T09:58:07;4.18;;;0.93;;
69226;SDS011;56334;52.398;7.552;2023-05-16T10:00:33;7.93;;;1.35;;
69226;SDS011;56334;52.398;7.552;2023-05-16T10:03:01;5.70;;;1.30;;
69226;SDS011;56334;52.398;7.552;2023-05-16T10:05:27;6.30;;;1.33;;
69226;SDS011;56334;52.398;7.552;2023-05-16T10:07:54;5.82;;;1.20;;
69226;SDS011;56334;52.398;7.552;2023-05-16T10:10:20;4.60;;;0.90;;
69226;SDS011;56334;52.398;7.552;2023-05-16T10:12:47;9.43;;;1.33;;
69226;SDS011;56334;52.398;7.552;2023-05-16T10:15:13;8.55;;;1.20;;
69226;SDS011;56334;52.398;7.552;2023-05-16T10:20:07;8.57;;;1.48;;
69226;SDS011;56334;52.398;7.552;2023-05-16T10:22:35;3.65;;;1.00;;
69226;SDS011;56334;52.398;7.552;2023-05-16T10:25:08;8.98;;;1.27;;
69226;SDS011;56334;52.398;7.552;2023-05-16T10:27:38;7.05;;;1.23;;
69226;SDS011;56334;52.398;7.552;2023-05-16T10:30:05;6.50;;;0.90;;
69226;SDS011;56334;52.398;7.552;2023-05-16T10:32:33;7.57;;;1.02;;
69226;SDS011;56334;52.398;7.552;2023-05-16T10:35:00;3.92;;;0.98;;
69226;SDS011;56334;52.398;7.552;2023-05-16T10:37:28;6.32;;;1.10;;
69226;SDS011;56334;52.398;7.552;2023-05-16T10:39:54;7.68;;;1.30;;
69226;SDS011;56334;52.398;7.552;2023-05-16T10:42:21;4.38;;;1.05;;
69226;SDS011;56334;52.398;7.552;2023-05-16T10:44:47;7.68;;;1.30;;
69226;SDS011;56334;52.398;7.552;2023-05-16T10:47:17;5.38;;;1.15;;
69226;SDS011;56334;52.398;7.552;2023-05-16T10:49:43;5.35;;;1.15;;
69226;SDS011;56334;52.398;7.552;2023-05-16T10:52:11;4.75;;;0.98;;
69226;SDS011;56334;52.398;7.552;2023-05-16T10:57:17;6.15;;;0.98;;
69226;SDS011;56334;52.398;7.552;2023-05-16T10:59:45;6.65;;;1.27;;
69226;SDS011;56334;52.398;7.552;2023-05-16T11:04:50;6.43;;;1.05;;
69226;SDS011;56334;52.398;7.552;2023-05-16T11:07:17;7.38;;;1.30;;
69226;SDS011;56334;52.398;7.552;2023-05-16T11:09:44;11.38;;;1.50;;
69226;SDS011;56334;52.398;7.552;2023-05-16T11:12:11;8.23;;;1.20;;
69226;SDS011;56334;52.398;7.552;2023-05-16T11:17:20;5.18;;;1.08;;
69226;SDS011;56334;52.398;7.552;2023-05-16T11:19:51;6.05;;;1.13;;
69226;SDS011;56334;52.398;7.552;2023-05-16T11:24:58;6.50;;;1.20;;
69226;SDS011;56334;52.398;7.552;2023-05-16T11:27:29;6.72;;;1.10;;
69226;SDS011;56334;52.398;7.552;2023-05-16T11:30:14;8.85;;;1.50;;
69226;SDS011;56334;52.398;7.552;2023-05-16T11:32:42;6.35;;;1.08;;
69226;SDS011;56334;52.398;7.552;2023-05-16T11:35:09;6.90;;;1.13;;
69226;SDS011;56334;52.398;7.552;2023-05-16T11:37:36;7.30;;;1.13;;
69226;SDS011;56334;52.398;7.552;2023-05-16T11:40:10;7.28;;;1.30;;
69226;SDS011;56334;52.398;7.552;2023-05-16T11:42:46;10.15;;;1.45;;
69226;SDS011;56334;52.398;7.552;2023-05-16T11:47:44;7.47;;;1.40;;
69226;SDS011;56334;52.398;7.552;2023-05-16T11:52:37;5.63;;;1.08;;
69226;SDS011;56334;52.398;7.552;2023-05-16T11:55:07;6.97;;;1.13;;
69226;SDS011;56334;52.398;7.552;2023-05-16T11:57:35;6.60;;;1.40;;
69226;SDS011;56334;52.398;7.552;2023-05-16T12:00:02;5.40;;;0.93;;
69226;SDS011;56334;52.398;7.552;2023-05-16T12:02:30;7.32;;;1.17;;
69226;SDS011;56334;52.398;7.552;2023-05-16T12:04:56;7.65;;;1.10;;
69226;SDS011;56334;52.398;7.552;2023-05-16T12:07:26;6.63;;;1.20;;
69226;SDS011;56334;52.398;7.552;2023-05-16T12:09:53;6.65;;;0.98;;
69226;SDS011;56334;52.398;7.552;2023-05-16T12:12:19;5.28;;;1.10;;
69226;SDS011;56334;52.398;7.552;2023-05-16T12:14:46;6.10;;;1.33;;
69226;SDS011;56334;52.398;7.552;2023-05-16T12:17:12;8.55;;;1.45;;
69226;SDS011;56334;52.398;7.552;2023-05-16T12:19:38;8.20;;;1.35;;
69226;SDS011;56334;52.398;7.552;2023-05-16T12:22:11;7.18;;;1.40;;
69226;SDS011;56334;52.398;7.552;2023-05-16T12:24:40;4.70;;;0.80;;
69226;SDS011;56334;52.398;7.552;2023-05-16T12:27:07;5.90;;;1.05;;
69226;SDS011;56334;52.398;7.552;2023-05-16T12:29:33;6.75;;;1.10;;
69226;SDS011;56334;52.398;7.552;2023-05-16T12:31:59;7.88;;;1.30;;
69226;SDS011;56334;52.398;7.552;2023-05-16T12:34:27;6.63;;;1.25;;
69226;SDS011;56334;52.398;7.552;2023-05-16T12:36:54;7.03;;;1.20;;
69226;SDS011;56334;52.398;7.552;2023-05-16T12:39:20;10.75;;;1.30;;
69226;SDS011;56334;52.398;7.552;2023-05-16T12:44:17;11.25;;;1.70;;
69226;SDS011;56334;52.398;7.552;2023-05-16T12:46:44;9.40;;;1.35;;
69226;SDS011;56334;52.398;7.552;2023-05-16T12:51:36;8.05;;;1.30;;
69226;SDS011;56334;52.398;7.552;2023-05-16T12:54:09;7.70;;;1.55;;
69226;SDS011;56334;52.398;7.552;2023-05-16T12:56:38;7.38;;;1.55;;
69226;SDS011;56334;52.398;7.552;2023-05-16T12:59:04;7.07;;;1.27;;
69226;SDS011;56334;52.398;7.552;2023-05-16T13:01:30;6.03;;;1.20;;
69226;SDS011;56334;52.398;7.552;2023-05-16T13:03:56;9.95;;;1.40;;
69226;SDS011;56334;52.398;7.552;2023-05-16T13:06:23;7.03;;;1.25;;
69226;SDS011;56334;52.398;7.552;2023-05-16T13:08:49;6.20;;;1.10;;
69226;SDS011;56334;52.398;7.552;2023-05-16T13:11:15;9.10;;;1.42;;
69226;SDS011;56334;52.398;7.552;2023-05-16T13:13:42;9.07;;;2.35;;
69226;SDS011;56334;52.398;7.552;2023-05-16T13:16:09;8.43;;;1.50;;
69226;SDS011;56334;52.398;7.552;2023-05-16T13:18:35;6.80;;;1.10;;
69226;SDS011;56334;52.398;7.552;2023-05-16T13:21:01;6.85;;;1.20;;
69226;SDS011;56334;52.398;7.552;2023-05-16T13:23:30;6.35;;;1.30;;
69226;SDS011;56334;52.398;7.552;2023-05-16T13:25:57;8.30;;;1.20;;
69226;SDS011;56334;52.398;7.552;2023-05-16T13:28:23;7.30;;;1.10;;
69226;SDS011;56334;52.398;7.552;2023-05-16T13:30:49;7.55;;;1.40;;
69226;SDS011;56334;52.398;7.552;2023-05-16T13:33:15;7.55;;;1.42;;
69226;SDS011;56334;52.398;7.552;2023-05-16T13:35:42;7.63;;;1.27;;
69226;SDS011;56334;52.398;7.552;2023-05-16T13:40:34;7.47;;;1.30;;
69226;SDS011;56334;52.398;7.552;2023-05-16T13:43:01;6.35;;;1.20;;
69226;SDS011;56334;52.398;7.552;2023-05-16T13:45:27;8.45;;;1.50;;
69226;SDS011;56334;52.398;7.552;2023-05-16T13:47:53;6.03;;;1.48;;
69226;SDS011;56334;52.398;7.552;2023-05-16T13:50:19;9.52;;;1.50;;
69226;SDS011;56334;52.398;7.552;2023-05-16T13:52:45;5.35;;;1.40;;
69226;SDS011;56334;52.398;7.552;2023-05-16T13:55:12;8.75;;;1.75;;
69226;SDS011;56334;52.398;7.552;2023-05-16T13:57:40;8.07;;;1.70;;
69226;SDS011;56334;52.398;7.552;2023-05-16T14:00:06;7.40;;;1.50;;
69226;SDS011;56334;52.398;7.552;2023-05-16T14:02:37;8.40;;;1.50;;
69226;SDS011;56334;52.398;7.552;2023-05-16T14:05:03;7.88;;;1.67;;
69226;SDS011;56334;52.398;7.552;2023-05-16T14:07:29;7.75;;;1.85;;
69226;SDS011;56334;52.398;7.552;2023-05-16T14:09:55;10.80;;;2.55;;
69226;SDS011;56334;52.398;7.552;2023-05-16T14:12:21;9.60;;;1.80;;
69226;SDS011;56334;52.398;7.552;2023-05-16T14:14:47;9.18;;;1.88;;
69226;SDS011;56334;52.398;7.552;2023-05-16T14:17:13;8.20;;;1.90;;
69226;SDS011;56334;52.398;7.552;2023-05-16T14:19:39;10.85;;;2.10;;
69226;SDS011;56334;52.398;7.552;2023-05-16T14:22:05;7.70;;;1.65;;
69226;SDS011;56334;52.398;7.552;2023-05-16T14:24:32;6.90;;;1.73;;
69226;SDS011;56334;52.398;7.552;2023-05-16T14:26:58;8.93;;;1.70;;
69226;SDS011;56334;52.398;7.552;2023-05-16T14:29:24;10.88;;;1.88;;
69226;SDS011;56334;52.398;7.552;2023-05-16T14:31:50;6.75;;;1.50;;
69226;SDS011;56334;52.398;7.552;2023-05-16T14:34:16;7.80;;;2.13;;
69226;SDS011;56334;52.398;7.552;2023-05-16T14:36:42;9.65;;;1.95;;
69226;SDS011;56334;52.398;7.552;2023-05-16T14:39:08;6.80;;;1.50;;
69226;SDS011;56334;52.398;7.552;2023-05-16T14:41:35;8.48;;;1.60;;
69226;SDS011;56334;52.398;7.552;2023-05-16T14:44:01;7.70;;;2.00;;
69226;SDS011;56334;52.398;7.552;2023-05-16T14:46:27;11.10;;;1.80;;
69226;SDS011;56334;52.398;7.552;2023-05-16T14:48:53;8.60;;;2.03;;
69226;SDS011;56334;52.398;7.552;2023-05-16T14:51:19;8.85;;;2.10;;
69226;SDS011;56334;52.398;7.552;2023-05-16T14:53:45;8.13;;;2.03;;
69226;SDS011;56334;52.398;7.552;2023-05-16T14:56:11;8.93;;;1.77;;
69226;SDS011;56334;52.398;7.552;2023-05-16T14:58:38;5.90;;;1.25;;
69226;SDS011;56334;52.398;7.552;2023-05-16T15:01:05;9.80;;;2.20;;
69226;SDS011;56334;52.398;7.552;2023-05-16T15:03:31;7.88;;;2.10;;
69226;SDS011;56334;52.398;7.552;2023-05-16T15:05:57;11.43;;;2.30;;
69226;SDS011;56334;52.398;7.552;2023-05-16T15:08:23;10.30;;;2.35;;
69226;SDS011;56334;52.398;7.552;2023-05-16T15:10:52;8.45;;;1.80;;
69226;SDS011;56334;52.398;7.552;2023-05-16T15:13:18;8.32;;;2.15;;
69226;SDS011;56334;52.398;7.552;2023-05-16T15:15:44;10.27;;;2.00;;
69226;SDS011;56334;52.398;7.552;2023-05-16T15:26:48;9.15;;;2.40;;
69226;SDS011;56334;52.398;7.552;2023-05-16T15:29:17;9.05;;;2.30;;
69226;SDS011;56334;52.398;7.552;2023-05-16T15:31:44;8.73;;;2.10;;
69226;SDS011;56334;52.398;7.552;2023-05-16T15:34:21;11.38;;;2.28;;
69226;SDS011;56334;52.398;7.552;2023-05-16T15:36:49;7.88;;;1.80;;